createdAt,value
2018-07-01T00:00:48.269Z,99115.33
2018-07-01T00:03:51.484Z,99117.77
2018-07-01T00:06:55.613Z,99123.67
2018-07-01T00:09:58.718Z,99122.72
2018-07-01T00:13:01.782Z,99129.29
2018-07-01T00:16:04.922Z,99128.23
2018-07-01T00:19:07.980Z,99125.78
2018-07-01T00:22:11.042Z,99134.86
2018-07-01T00:25:15.058Z,99141.86
2018-07-01T00:28:18.118Z,99147.25
2018-07-01T00:31:22.163Z,99150.32
2018-07-01T00:34:26.160Z,99156.76
2018-07-01T00:37:29.157Z,99159.35
2018-07-01T00:40:32.184Z,99168.19
2018-07-01T00:43:36.224Z,99168.55
2018-07-01T00:46:39.933Z,99166.20
2018-07-01T00:49:42.908Z,99172.78
2018-07-01T00:52:46.008Z,99163.15
2018-07-01T00:55:49.583Z,99167.72
2018-07-01T00:58:52.581Z,99167.76
2018-07-01T01:01:56.627Z,99167.64
2018-07-01T01:04:59.584Z,99168.80
2018-07-01T01:08:02.525Z,99166.87
2018-07-01T01:11:05.974Z,99167.38
2018-07-01T01:14:10.040Z,99173.11
2018-07-01T01:17:13.103Z,99171.50
2018-07-01T01:20:17.095Z,99170.87
2018-07-01T01:23:20.051Z,99165.66
2018-07-01T01:26:23.427Z,99154.88
2018-07-01T01:29:27.652Z,99161.58
2018-07-01T01:32:30.759Z,99153.89
2018-07-01T01:35:33.944Z,99153.89
2018-07-01T01:38:39.016Z,99148.97
2018-07-01T01:43:50.091Z,99139.80
2018-07-01T01:46:58.941Z,99149.84
2018-07-01T01:52:09.775Z,99147.59
2018-07-01T01:55:24.921Z,99149.63
2018-07-01T01:58:33.943Z,99147.52
2018-07-01T02:01:41.657Z,99149.50
2018-07-01T02:04:53.836Z,99151.45
2018-07-01T02:08:00.158Z,99148.02
2018-07-01T02:11:03.533Z,99144.42
2018-07-01T02:14:10.364Z,99135.61
2018-07-01T02:17:21.932Z,99133.64
2018-07-01T02:20:29.002Z,99128.64
2018-07-01T02:23:49.657Z,99130.88
2018-07-01T02:26:52.933Z,99138.36
2018-07-01T02:29:57.028Z,99137.40
2018-07-01T02:33:00.233Z,99140.08
2018-07-01T02:36:03.242Z,99134.86
2018-07-01T02:39:07.558Z,99139.76
2018-07-01T02:42:11.524Z,99142.50
2018-07-01T02:45:15.511Z,99139.61
2018-07-01T02:48:18.506Z,99137.42
2018-07-01T02:51:21.516Z,99140.22
2018-07-01T02:54:24.603Z,99141.09
2018-07-01T02:57:27.603Z,99149.75
2018-07-01T03:00:30.615Z,99154.33
2018-07-01T03:03:33.639Z,99155.22
2018-07-01T03:06:37.651Z,99155.82
2018-07-01T03:09:40.655Z,99165.23
2018-07-01T03:12:43.660Z,99166.81
2018-07-01T03:15:46.751Z,99159.78
2018-07-01T03:18:49.746Z,99156.85
2018-07-01T03:21:52.821Z,99157.19
2018-07-01T03:24:56.899Z,99161.59
2018-07-01T03:27:59.918Z,99161.10
2018-07-01T03:31:03.940Z,99163.05
2018-07-01T03:34:07.083Z,99167.45
2018-07-01T03:37:10.057Z,99168.97
2018-07-01T03:40:13.045Z,99172.29
2018-07-01T03:43:17.037Z,99167.44
2018-07-01T03:46:20.158Z,99170.41
2018-07-01T03:49:23.124Z,99169.87
2018-07-01T03:52:27.085Z,99177.79
2018-07-01T03:55:30.105Z,99187.48
2018-07-01T03:58:33.063Z,99191.07
2018-07-01T04:01:36.176Z,99186.94
2018-07-01T04:04:39.440Z,99176.59
2018-07-01T04:07:43.533Z,99170.53
2018-07-01T04:10:46.600Z,99173.02
2018-07-01T04:13:49.709Z,99167.19
2018-07-01T04:16:52.752Z,99172.23
2018-07-01T04:19:55.839Z,99160.63
2018-07-01T04:22:58.833Z,99169.82
2018-07-01T04:26:01.854Z,99167.97
2018-07-01T04:29:04.990Z,99165.64
2018-07-01T04:32:08.984Z,99166.95
2018-07-01T04:35:12.037Z,99178.41
2018-07-01T04:38:15.093Z,99173.84
2018-07-01T04:41:18.119Z,99172.16
2018-07-01T04:44:21.238Z,99163.97
2018-07-01T04:47:24.261Z,99161.84
2018-07-01T04:50:27.209Z,99163.52
2018-07-01T04:53:30.299Z,99161.94
2018-07-01T04:56:34.258Z,99167.86
2018-07-01T04:59:37.201Z,99172.85
2018-07-01T05:02:40.278Z,99171.81
2018-07-01T05:05:43.406Z,99177.44
2018-07-01T05:08:46.338Z,99172.84
2018-07-01T05:11:50.335Z,99172.47
2018-07-01T05:14:53.325Z,99173.97
2018-07-01T05:17:56.501Z,99180.94
2018-07-01T05:20:59.470Z,99183.17
2018-07-01T05:24:02.427Z,99186.84
2018-07-01T05:27:05.699Z,99192.09
2018-07-01T05:30:08.605Z,99186.59
2018-07-01T05:33:11.670Z,99187.66
2018-07-01T05:36:14.665Z,99183.87
2018-07-01T05:39:17.802Z,99177.19
2018-07-01T05:42:21.477Z,99166.32
2018-07-01T05:45:24.564Z,99167.80
2018-07-01T05:48:27.611Z,99170.09
2018-07-01T05:51:30.982Z,99174.28
2018-07-01T05:54:35.103Z,99172.81
2018-07-01T05:57:38.207Z,99172.41
2018-07-01T06:00:41.255Z,99172.59
2018-07-01T06:03:44.346Z,99172.59
2018-07-01T06:06:47.418Z,99173.13
2018-07-01T06:09:50.409Z,99169.14
2018-07-01T06:12:54.627Z,99179.73
2018-07-01T06:15:57.719Z,99176.69
2018-07-01T06:19:00.933Z,99173.55
2018-07-01T06:22:03.919Z,99178.84
2018-07-01T06:25:07.101Z,99177.35
2018-07-01T06:28:10.380Z,99177.17
2018-07-01T06:31:13.402Z,99176.91
2018-07-01T06:34:16.383Z,99172.64
2018-07-01T06:37:19.502Z,99173.17
2018-07-01T06:40:23.749Z,99177.72
2018-07-01T06:43:26.774Z,99182.02
2018-07-01T06:46:29.739Z,99183.63
2018-07-01T06:49:32.824Z,99186.80
2018-07-01T06:52:35.755Z,99177.95
2018-07-01T06:55:38.916Z,99177.19
2018-07-01T06:58:41.906Z,99184.70
2018-07-01T07:01:44.901Z,99185.22
2018-07-01T07:04:48.898Z,99190.62
2018-07-01T07:07:51.901Z,99196.50
2018-07-01T07:10:55.874Z,99196.59
2018-07-01T07:13:58.858Z,99195.98
2018-07-01T07:17:01.985Z,99195.59
2018-07-01T07:20:05.021Z,99191.40
2018-07-01T07:23:08.112Z,99197.02
2018-07-01T07:26:11.211Z,99192.72
2018-07-01T07:29:14.153Z,99190.77
2018-07-01T07:32:17.121Z,99185.44
2018-07-01T07:35:21.146Z,99189.52
2018-07-01T07:38:25.199Z,99188.17
2018-07-01T07:41:28.242Z,99189.23
2018-07-01T07:44:31.267Z,99184.16
2018-07-01T07:47:34.246Z,99183.09
2018-07-01T07:50:37.256Z,99169.22
2018-07-01T07:53:40.315Z,99178.49
2018-07-01T07:56:44.371Z,99170.64
2018-07-01T07:59:47.417Z,99182.45
2018-07-01T08:02:50.441Z,99189.25
2018-07-01T08:05:53.507Z,99188.06
2018-07-01T08:08:57.506Z,99194.88
2018-07-01T08:12:00.514Z,99182.08
2018-07-01T08:15:03.546Z,99173.45
2018-07-01T08:18:07.599Z,99186.66
2018-07-01T08:21:10.617Z,99190.97
2018-07-01T08:24:13.649Z,99182.66
2018-07-01T08:27:16.684Z,99184.30
2018-07-01T08:30:19.666Z,99185.28
2018-07-01T08:33:23.711Z,99179.66
2018-07-01T08:36:26.847Z,99176.02
2018-07-01T08:39:31.026Z,99181.63
2018-07-01T08:42:36.388Z,99170.22
2018-07-01T08:45:39.339Z,99169.31
2018-07-01T08:48:43.363Z,99176.66
2018-07-01T08:51:46.437Z,99169.64
2018-07-01T08:54:50.461Z,99174.33
2018-07-01T08:57:55.556Z,99171.27
2018-07-01T09:00:58.563Z,99168.63
2018-07-01T09:04:01.566Z,99169.59
2018-07-01T09:07:04.612Z,99165.33
2018-07-01T09:10:07.926Z,99178.50
2018-07-01T09:13:11.006Z,99177.36
2018-07-01T09:16:14.930Z,99175.52
2018-07-01T09:19:18.970Z,99175.05
2018-07-01T09:22:21.945Z,99169.41
2018-07-01T09:25:24.914Z,99167.25
2018-07-01T09:28:29.069Z,99164.88
2018-07-01T09:31:32.195Z,99168.28
2018-07-01T09:34:36.306Z,99161.94
2018-07-01T09:37:39.230Z,99165.74
2018-07-01T09:40:43.263Z,99163.23
2018-07-01T09:43:47.317Z,99157.14
2018-07-01T09:46:50.388Z,99161.54
2018-07-01T09:49:53.505Z,99154.23
2018-07-01T09:52:58.466Z,99156.45
2018-07-01T09:56:01.473Z,99153.54
2018-07-01T09:59:05.594Z,99145.72
2018-07-01T10:02:09.654Z,99153.01
2018-07-01T10:05:13.754Z,99137.38
2018-07-01T10:08:16.797Z,99139.02
2018-07-01T10:11:19.814Z,99142.94
2018-07-01T10:14:22.738Z,99129.88
2018-07-01T10:17:25.692Z,99131.38
2018-07-01T10:20:28.925Z,99151.36
2018-07-01T10:23:33.037Z,99141.55
2018-07-01T10:26:35.995Z,99143.16
2018-07-01T10:29:39.073Z,99135.45
2018-07-01T10:32:43.081Z,99153.44
2018-07-01T10:35:48.372Z,99143.30
2018-07-01T10:38:51.503Z,99136.08
2018-07-01T10:41:55.556Z,99145.20
2018-07-01T10:45:01.485Z,99134.88
2018-07-01T10:48:04.579Z,99133.02
2018-07-01T10:51:07.639Z,99131.52
2018-07-01T10:54:11.702Z,99126.31
2018-07-01T10:57:14.722Z,99130.95
2018-07-01T11:00:17.699Z,99117.75
2018-07-01T11:03:21.799Z,99115.83
2018-07-01T11:06:25.808Z,99123.65
2018-07-01T11:09:28.808Z,99120.98
2018-07-01T11:12:33.026Z,99113.04
2018-07-01T11:15:36.233Z,99114.06
2018-07-01T11:18:40.223Z,99103.46
2018-07-01T11:21:43.321Z,99105.84
2018-07-01T11:24:47.345Z,99094.45
2018-07-01T11:27:51.375Z,99094.75
2018-07-01T11:30:54.611Z,99094.40
2018-07-01T11:33:57.691Z,99086.23
2018-07-01T11:37:00.715Z,99091.66
2018-07-01T11:40:04.330Z,99083.88
2018-07-01T11:43:07.574Z,99084.95
2018-07-01T11:46:11.679Z,99084.09
2018-07-01T11:49:16.991Z,99082.49
2018-07-01T11:52:20.082Z,99075.67
2018-07-01T11:55:24.093Z,99081.95
2018-07-01T11:58:27.193Z,99077.34
2018-07-01T12:01:31.186Z,99069.94
2018-07-01T12:04:34.237Z,99070.74
2018-07-01T12:07:37.400Z,99061.88
2018-07-01T12:10:40.395Z,99067.75
2018-07-01T12:13:43.478Z,99068.31
2018-07-01T12:16:46.492Z,99062.66
2018-07-01T12:19:50.634Z,99059.16
2018-07-01T12:22:53.926Z,99060.77
2018-07-01T12:25:56.920Z,99053.48
2018-07-01T12:28:59.983Z,99059.88
2018-07-01T12:32:04.045Z,99057.60
2018-07-01T12:35:07.708Z,99056.78
2018-07-01T12:38:10.830Z,99060.18
2018-07-01T12:41:13.947Z,99048.56
2018-07-01T12:44:17.026Z,99046.00
2018-07-01T12:47:22.064Z,99044.72
2018-07-01T12:50:25.206Z,99044.58
2018-07-01T12:53:28.258Z,99047.95
2018-07-01T12:56:31.367Z,99047.08
2018-07-01T12:59:34.471Z,99045.07
2018-07-01T13:02:38.554Z,99038.11
2018-07-01T13:05:41.771Z,99028.05
2018-07-01T13:08:45.873Z,99036.27
2018-07-01T13:11:49.057Z,99032.31
2018-07-01T13:14:53.145Z,99038.80
2018-07-01T13:17:56.206Z,99028.08
2018-07-01T13:20:59.265Z,99013.86
2018-07-01T13:24:02.375Z,99014.24
2018-07-01T13:27:05.496Z,99010.78
2018-07-01T13:30:09.622Z,99010.47
2018-07-01T13:33:12.682Z,99006.48
2018-07-01T13:36:18.010Z,99007.81
2018-07-01T13:39:21.039Z,99001.61
2018-07-01T13:42:24.104Z,99008.03
2018-07-01T13:45:27.116Z,99001.50
2018-07-01T13:48:30.741Z,99004.52
2018-07-01T13:51:33.852Z,98998.62
2018-07-01T13:54:37.892Z,99000.77
2018-07-01T13:57:41.025Z,99008.66
2018-07-01T14:00:44.287Z,98999.81
2018-07-01T14:03:47.234Z,98995.89
2018-07-01T14:06:50.344Z,98992.77
2018-07-01T14:09:54.358Z,99003.95
2018-07-01T14:12:57.474Z,98998.67
2018-07-01T14:16:01.562Z,98999.03
2018-07-01T14:19:04.700Z,98997.55
2018-07-01T14:22:07.779Z,98999.32
2018-07-01T14:25:10.799Z,99001.22
2018-07-01T14:28:13.808Z,98988.37
2018-07-01T14:31:16.919Z,98989.80
2018-07-01T14:34:19.924Z,98989.19
2018-07-01T14:37:22.963Z,98984.05
2018-07-01T14:40:27.033Z,98977.76
2018-07-01T14:43:31.112Z,98981.86
2018-07-01T14:46:34.016Z,98978.56
2018-07-01T14:49:36.979Z,98964.38
2018-07-01T14:52:40.958Z,98970.92
2018-07-01T14:55:44.974Z,98973.03
2018-07-01T14:58:48.065Z,98966.30
2018-07-01T15:01:51.064Z,98972.19
2018-07-01T15:04:54.114Z,98974.20
2018-07-01T15:07:57.059Z,98962.94
2018-07-01T15:11:00.159Z,98957.08
2018-07-01T15:14:03.712Z,98958.83
2018-07-01T15:17:06.769Z,98953.41
2018-07-01T15:20:09.745Z,98957.11
2018-07-01T15:23:12.805Z,98948.16
2018-07-01T15:26:16.908Z,98951.77
2018-07-01T15:29:19.985Z,98946.63
2018-07-01T15:32:22.904Z,98943.50
2018-07-01T15:35:27.046Z,98934.91
2018-07-01T15:38:29.979Z,98945.42
2018-07-01T15:41:32.990Z,98918.69
2018-07-01T15:44:36.008Z,98930.02
2018-07-01T15:47:39.142Z,98927.94
2018-07-01T15:50:42.218Z,98930.75
2018-07-01T15:53:45.225Z,98927.66
2018-07-01T15:56:48.291Z,98925.72
2018-07-01T15:59:51.365Z,98933.35
2018-07-01T16:02:54.518Z,98929.09
2018-07-01T16:05:57.525Z,98930.03
2018-07-01T16:09:00.573Z,98931.20
2018-07-01T16:12:03.640Z,98923.95
2018-07-01T16:15:06.681Z,98929.99
2018-07-01T16:18:09.674Z,98927.12
2018-07-01T16:21:12.702Z,98919.27
2018-07-01T16:24:15.744Z,98923.25
2018-07-01T16:27:23.230Z,98926.30
2018-07-01T16:30:26.198Z,98925.80
2018-07-01T16:33:29.227Z,98922.91
2018-07-01T16:36:32.235Z,98922.06
2018-07-01T16:39:35.366Z,98924.16
2018-07-01T16:42:38.419Z,98924.19
2018-07-01T16:45:41.477Z,98922.24
2018-07-01T16:48:44.451Z,98927.86
2018-07-01T16:51:47.515Z,98929.72
2018-07-01T16:54:50.542Z,98919.94
2018-07-01T16:57:53.506Z,98920.83
2018-07-01T17:00:56.551Z,98924.42
2018-07-01T17:03:59.589Z,98906.10
2018-07-01T17:07:02.541Z,98926.64
2018-07-01T17:10:05.648Z,98918.06
2018-07-01T17:13:08.687Z,98917.63
2018-07-01T17:16:12.742Z,98912.88
2018-07-01T17:19:15.796Z,98906.61
2018-07-01T17:22:18.752Z,98919.34
2018-07-01T17:25:21.776Z,98919.87
2018-07-01T17:28:25.538Z,98916.37
2018-07-01T17:31:34.302Z,98925.45
2018-07-01T17:34:37.310Z,98924.22
2018-07-01T17:37:41.249Z,98917.90
2018-07-01T17:40:44.305Z,98926.13
2018-07-01T17:43:47.294Z,98922.21
2018-07-01T17:46:50.252Z,98929.18
2018-07-01T17:49:53.252Z,98924.67
2018-07-01T17:52:56.268Z,98922.02
2018-07-01T17:56:01.079Z,98927.12
2018-07-01T17:59:04.094Z,98925.19
2018-07-01T18:02:07.314Z,98927.13
2018-07-01T18:05:10.386Z,98922.24
2018-07-01T18:08:13.477Z,98932.58
2018-07-01T18:11:16.537Z,98929.97
2018-07-01T18:14:20.631Z,98926.25
2018-07-01T18:17:25.547Z,98918.59
2018-07-01T18:20:28.585Z,98918.45
2018-07-01T18:24:02.953Z,98926.65
2018-07-01T18:26:35.270Z,98928.11
2018-07-01T18:29:39.258Z,98927.50
2018-07-01T18:32:42.247Z,98926.76
2018-07-01T18:35:45.223Z,98926.55
2018-07-01T18:38:49.311Z,98928.84
2018-07-01T18:41:52.439Z,98929.74
2018-07-01T18:44:55.466Z,98933.78
2018-07-01T18:47:58.401Z,98934.34
2018-07-01T18:51:01.449Z,98932.17
2018-07-01T18:54:04.437Z,98938.86
2018-07-01T18:57:07.445Z,98943.59
2018-07-01T19:00:10.594Z,98948.52
2018-07-01T19:03:14.577Z,98947.98
2018-07-01T19:06:17.530Z,98941.96
2018-07-01T19:09:21.530Z,98945.14
2018-07-01T19:12:24.490Z,98940.16
2018-07-01T19:15:27.502Z,98953.41
2018-07-01T19:18:31.701Z,98948.20
2018-07-01T19:21:34.715Z,98956.50
2018-07-01T19:24:37.670Z,98960.30
2018-07-01T19:27:40.697Z,98960.29
2018-07-01T19:30:44.669Z,98963.00
2018-07-01T19:33:47.638Z,98964.92
2018-07-01T19:36:50.664Z,98974.24
2018-07-01T19:39:53.634Z,98977.70
2018-07-01T19:42:56.643Z,98975.97
2018-07-01T19:46:00.593Z,98982.42
2018-07-01T19:49:03.641Z,98987.72
2018-07-01T19:52:06.627Z,98987.87
2018-07-01T19:55:09.596Z,98988.33
2018-07-01T19:58:12.664Z,98994.81
2018-07-01T20:01:16.742Z,98996.36
2018-07-01T20:04:19.695Z,99004.66
2018-07-01T20:07:22.824Z,99006.49
2018-07-01T20:10:25.774Z,99016.94
2018-07-01T20:13:28.795Z,99018.45
2018-07-01T20:16:31.788Z,99028.03
2018-07-01T20:19:34.749Z,99032.33
2018-07-01T20:22:37.769Z,99033.43
2018-07-01T20:25:40.723Z,99032.45
2018-07-01T20:28:44.797Z,99035.34
2018-07-01T20:31:48.834Z,99033.37
2018-07-01T20:34:51.802Z,99037.51
2018-07-01T20:37:54.729Z,99035.26
2018-07-01T20:40:58.803Z,99032.95
2018-07-01T20:44:02.799Z,99036.50
2018-07-01T20:47:05.861Z,99037.75
2018-07-01T20:50:08.852Z,99043.81
2018-07-01T20:53:11.919Z,99050.02
2018-07-01T20:56:14.968Z,99045.55
2018-07-01T20:59:19.753Z,99051.43
2018-07-01T21:02:22.786Z,99050.92
2018-07-01T21:05:25.803Z,99050.72
2018-07-01T21:08:29.694Z,99046.64
2018-07-01T21:11:32.602Z,99045.02
2018-07-01T21:14:35.648Z,99053.75
2018-07-01T21:17:39.655Z,99050.92
2018-07-01T21:20:43.661Z,99048.69
2018-07-01T21:23:47.598Z,99053.25
2018-07-01T21:26:50.991Z,99053.97
2018-07-01T21:29:54.110Z,99050.91
2018-07-01T21:32:57.121Z,99053.64
2018-07-01T21:36:00.172Z,99053.20
2018-07-01T21:39:05.214Z,99051.47
2018-07-01T21:42:08.177Z,99056.08
2018-07-01T21:45:11.304Z,99063.23
2018-07-01T21:48:14.335Z,99063.02
2018-07-01T21:51:17.379Z,99061.95
2018-07-01T21:54:20.431Z,99060.09
2018-07-01T21:57:23.431Z,99061.40
2018-07-01T22:00:30.447Z,99062.95
2018-07-01T22:03:33.435Z,99058.27
2018-07-01T22:06:42.048Z,99059.36
2018-07-01T22:09:45.133Z,99060.94
2018-07-01T22:12:51.397Z,99067.21
2018-07-01T22:16:04.926Z,99065.66
2018-07-01T22:19:07.948Z,99064.73
2018-07-01T22:22:11.042Z,99064.50
2018-07-01T22:25:15.027Z,99078.44
2018-07-01T22:28:17.940Z,99084.01
2018-07-01T22:31:20.989Z,99079.59
2018-07-01T22:34:24.173Z,99071.66
2018-07-01T22:37:27.307Z,99082.39
2018-07-01T22:40:30.289Z,99089.62
2018-07-01T22:43:34.321Z,99092.11
2018-07-01T22:46:38.462Z,99089.36
2018-07-01T22:49:41.484Z,99092.95
2018-07-01T22:52:44.545Z,99093.01
2018-07-01T22:55:47.531Z,99089.31
2018-07-01T22:58:50.550Z,99098.52
2018-07-01T23:03:03.630Z,99101.41
2018-07-01T23:06:06.662Z,99100.54
2018-07-01T23:09:09.603Z,99098.98
2018-07-01T23:12:13.664Z,99096.52
2018-07-01T23:15:16.685Z,99095.98
2018-07-01T23:18:19.750Z,99096.50
2018-07-01T23:21:22.810Z,99092.46
2018-07-01T23:24:25.777Z,99094.80
2018-07-01T23:27:28.726Z,99092.58
2018-07-01T23:30:31.687Z,99089.91
2018-07-01T23:33:34.658Z,99092.32
2018-07-01T23:36:37.666Z,99085.20
2018-07-01T23:39:41.730Z,99080.02
2018-07-01T23:42:44.851Z,99073.51
2018-07-01T23:45:47.878Z,99076.60
2018-07-01T23:48:50.996Z,99078.38
2018-07-01T23:51:54.139Z,99073.98
2018-07-01T23:54:57.175Z,99061.13
2018-07-01T23:58:00.269Z,99060.41
